createdAt,value
2023-04-18T00:00:07.084Z,33.47
2023-04-18T00:02:37.051Z,32.60
2023-04-18T00:05:05.611Z,42.75
2023-04-18T00:07:32.509Z,30.35
2023-04-18T00:09:59.281Z,35.95
2023-04-18T00:12:26.324Z,39.00
2023-04-18T00:14:53.153Z,38.03
2023-04-18T00:17:21.223Z,38.22
2023-04-18T00:19:48.182Z,40.55
2023-04-18T00:22:16.554Z,40.55
2023-04-18T00:24:43.489Z,35.00
2023-04-18T00:27:10.249Z,39.65
2023-04-18T00:29:36.913Z,35.03
2023-04-18T00:32:03.724Z,37.80
2023-04-18T00:34:30.528Z,33.10
2023-04-18T00:36:57.292Z,37.10
2023-04-18T00:39:24.037Z,34.60
2023-04-18T00:41:51.807Z,38.05
2023-04-18T00:44:18.604Z,39.53
2023-04-18T00:46:45.314Z,45.63
2023-04-18T00:49:14.424Z,35.78
2023-04-18T00:51:41.290Z,38.65
2023-04-18T00:54:09.099Z,32.25
2023-04-18T00:56:36.347Z,36.70
2023-04-18T00:59:03.855Z,35.70
2023-04-18T01:01:31.005Z,33.63
2023-04-18T01:04:00.553Z,35.72
2023-04-18T01:06:28.701Z,47.65
2023-04-18T01:08:57.043Z,40.95
2023-04-18T01:11:24.413Z,34.13
2023-04-18T01:14:01.649Z,31.50
2023-04-18T01:16:29.834Z,39.28
2023-04-18T01:18:57.117Z,39.95
2023-04-18T01:21:23.728Z,35.72
2023-04-18T01:23:52.865Z,33.85
2023-04-18T01:26:19.931Z,37.95
2023-04-18T01:28:46.749Z,28.38
2023-04-18T01:31:13.747Z,34.90
2023-04-18T01:33:40.597Z,37.60
2023-04-18T01:36:07.666Z,32.80
2023-04-18T01:38:34.532Z,32.03
2023-04-18T01:41:02.297Z,41.47
2023-04-18T01:43:28.925Z,36.03
2023-04-18T01:45:55.759Z,30.25
2023-04-18T01:48:22.500Z,29.55
2023-04-18T01:50:49.203Z,34.13
2023-04-18T01:53:17.818Z,30.60
2023-04-18T01:55:44.689Z,32.72
2023-04-18T01:58:11.646Z,26.83
2023-04-18T02:00:38.501Z,31.33
2023-04-18T02:03:05.351Z,30.13
2023-04-18T02:05:32.057Z,24.88
2023-04-18T02:07:59.463Z,28.52
2023-04-18T02:10:26.321Z,25.42
2023-04-18T02:12:52.996Z,26.90
2023-04-18T02:15:19.836Z,27.55
2023-04-18T02:17:46.657Z,23.80
2023-04-18T02:20:14.061Z,25.60
2023-04-18T02:22:40.959Z,22.92
2023-04-18T02:25:08.340Z,26.05
2023-04-18T02:27:35.419Z,23.45
2023-04-18T02:30:02.341Z,27.50
2023-04-18T02:32:28.962Z,19.70
2023-04-18T02:34:55.889Z,24.23
2023-04-18T02:37:22.517Z,26.00
2023-04-18T02:39:49.353Z,23.00
2023-04-18T02:42:16.244Z,16.48
2023-04-18T02:44:43.104Z,23.73
2023-04-18T02:47:09.938Z,23.48
2023-04-18T02:49:36.624Z,18.73
2023-04-18T02:52:03.527Z,22.38
2023-04-18T02:54:30.300Z,22.65
2023-04-18T02:56:57.433Z,21.27
2023-04-18T02:59:24.397Z,23.67
2023-04-18T03:01:51.028Z,35.05
2023-04-18T03:04:18.375Z,20.73
2023-04-18T03:06:45.228Z,20.70
2023-04-18T03:09:12.223Z,27.38
2023-04-18T03:11:38.991Z,18.95
2023-04-18T03:14:06.039Z,21.10
2023-04-18T03:16:34.305Z,22.30
2023-04-18T03:19:01.639Z,18.48
2023-04-18T03:21:28.460Z,23.15
2023-04-18T03:23:54.932Z,19.77
2023-04-18T03:26:21.774Z,22.88
2023-04-18T03:28:48.448Z,18.73
2023-04-18T03:31:15.223Z,19.92
2023-04-18T03:33:44.321Z,20.67
2023-04-18T03:36:12.533Z,22.00
2023-04-18T03:38:42.841Z,26.42
2023-04-18T03:41:09.831Z,21.15
2023-04-18T03:43:36.650Z,22.85
2023-04-18T03:46:03.486Z,19.90
2023-04-18T03:48:30.955Z,23.35
2023-04-18T03:50:58.779Z,30.55
2023-04-18T03:53:25.422Z,23.73
2023-04-18T03:55:52.084Z,21.40
2023-04-18T03:58:23.667Z,22.73
2023-04-18T04:00:52.000Z,20.85
2023-04-18T04:03:19.727Z,17.88
2023-04-18T04:05:46.831Z,21.83
2023-04-18T04:08:15.393Z,20.65
2023-04-18T04:10:42.460Z,18.23
2023-04-18T04:13:09.141Z,21.17
2023-04-18T04:15:38.584Z,17.02
2023-04-18T04:18:06.529Z,15.73
2023-04-18T04:20:33.455Z,21.17
2023-04-18T04:23:01.337Z,17.17
2023-04-18T04:25:31.342Z,19.55
2023-04-18T04:27:57.953Z,20.33
2023-04-18T04:30:24.576Z,21.40
2023-04-18T04:32:52.086Z,19.20
2023-04-18T04:35:19.075Z,18.85
2023-04-18T04:37:45.814Z,20.02
2023-04-18T04:40:13.293Z,18.40
2023-04-18T04:42:41.505Z,19.40
2023-04-18T04:45:09.848Z,20.13
2023-04-18T04:47:36.810Z,18.58
2023-04-18T04:50:06.201Z,17.00
2023-04-18T04:52:32.935Z,20.27
2023-04-18T04:54:59.588Z,21.40
2023-04-18T04:57:26.346Z,21.52
2023-04-18T04:59:53.546Z,19.23
2023-04-18T05:02:23.479Z,22.45
2023-04-18T05:04:50.602Z,31.27
2023-04-18T05:07:17.339Z,19.20
2023-04-18T05:09:44.697Z,22.10
2023-04-18T05:12:12.102Z,23.05
2023-04-18T05:14:38.935Z,19.20
2023-04-18T05:17:06.164Z,18.40
2023-04-18T05:19:33.142Z,19.63
2023-04-18T05:22:00.381Z,19.73
2023-04-18T05:24:27.139Z,19.38
2023-04-18T05:26:54.319Z,21.58
2023-04-18T05:29:21.354Z,20.98
2023-04-18T05:31:48.424Z,21.08
2023-04-18T05:34:15.606Z,20.33
2023-04-18T05:36:42.766Z,17.05
2023-04-18T05:39:09.656Z,18.65
2023-04-18T05:41:36.765Z,19.92
2023-04-18T05:44:05.747Z,19.98
2023-04-18T05:46:33.349Z,20.67
2023-04-18T05:49:00.429Z,23.55
2023-04-18T05:51:28.550Z,20.77
2023-04-18T05:53:55.615Z,19.38
2023-04-18T05:56:22.591Z,18.60
2023-04-18T05:58:51.457Z,25.00
2023-04-18T06:01:21.663Z,20.27
2023-04-18T06:03:48.817Z,20.83
2023-04-18T06:06:15.940Z,18.10
2023-04-18T06:08:42.878Z,22.30
2023-04-18T06:11:09.915Z,29.33
2023-04-18T06:13:37.457Z,18.15
2023-04-18T06:16:04.478Z,22.98
2023-04-18T06:18:31.604Z,16.55
2023-04-18T06:20:58.641Z,18.10
2023-04-18T06:23:25.472Z,20.88
2023-04-18T06:25:52.415Z,24.05
2023-04-18T06:28:19.356Z,19.73
2023-04-18T06:30:48.423Z,21.95
2023-04-18T06:33:15.637Z,17.73
2023-04-18T06:35:42.576Z,18.10
2023-04-18T06:38:12.439Z,24.33
2023-04-18T06:40:39.273Z,19.85
2023-04-18T06:43:06.086Z,20.55
2023-04-18T06:45:32.921Z,16.48
2023-04-18T06:47:59.895Z,15.00
2023-04-18T06:50:30.634Z,17.35
2023-04-18T06:52:57.378Z,18.02
2023-04-18T06:55:24.044Z,16.17
2023-04-18T06:57:50.956Z,29.20
2023-04-18T07:00:18.070Z,19.77
2023-04-18T07:02:45.086Z,18.15
2023-04-18T07:05:13.408Z,19.05
2023-04-18T07:07:40.488Z,20.23
2023-04-18T07:10:12.201Z,14.50
2023-04-18T07:12:39.109Z,28.38
2023-04-18T07:15:06.311Z,20.90
2023-04-18T07:17:33.123Z,19.45
2023-04-18T07:19:59.897Z,19.58
2023-04-18T07:22:26.436Z,28.42
2023-04-18T07:24:53.184Z,16.05
2023-04-18T07:27:20.127Z,20.98
2023-04-18T07:29:47.067Z,15.23
2023-04-18T07:32:14.011Z,24.55
2023-04-18T07:34:40.648Z,19.67
2023-04-18T07:37:07.693Z,16.00
2023-04-18T07:39:36.317Z,21.27
2023-04-18T07:42:04.798Z,18.67
2023-04-18T07:44:31.712Z,22.63
2023-04-18T07:46:58.565Z,23.98
2023-04-18T07:49:25.578Z,16.83
2023-04-18T07:51:52.256Z,30.13
2023-04-18T07:54:19.302Z,17.42
2023-04-18T07:56:45.926Z,26.02
2023-04-18T07:59:13.024Z,19.58
2023-04-18T08:01:39.898Z,19.37
2023-04-18T08:04:07.727Z,18.20
2023-04-18T08:06:34.882Z,22.63
2023-04-18T08:09:05.666Z,19.63
2023-04-18T08:11:33.864Z,24.15
2023-04-18T08:14:00.728Z,17.07
2023-04-18T08:16:28.717Z,17.75
2023-04-18T08:18:55.415Z,19.20
2023-04-18T08:21:22.406Z,17.33
2023-04-18T08:23:49.434Z,16.75
2023-04-18T08:26:16.349Z,17.30
2023-04-18T08:28:46.114Z,18.10
2023-04-18T08:31:14.920Z,17.77
2023-04-18T08:33:42.122Z,14.32
2023-04-18T08:36:09.823Z,18.27
2023-04-18T08:38:37.904Z,18.30
2023-04-18T08:41:04.718Z,23.63
2023-04-18T08:43:31.732Z,17.15
2023-04-18T08:45:59.998Z,20.70
2023-04-18T08:48:30.043Z,21.05
2023-04-18T08:50:58.996Z,16.40
2023-04-18T08:53:26.858Z,17.02
2023-04-18T08:55:57.425Z,16.55
2023-04-18T08:58:27.214Z,19.70
2023-04-18T09:00:55.136Z,17.48
2023-04-18T09:03:40.190Z,32.77
2023-04-18T09:06:19.588Z,14.77
2023-04-18T09:08:59.114Z,18.45
2023-04-18T09:11:31.798Z,17.25
2023-04-18T09:14:02.600Z,19.90
2023-04-18T09:16:47.121Z,17.80
2023-04-18T09:19:18.799Z,23.73
2023-04-18T09:21:48.912Z,20.45
2023-04-18T09:24:25.017Z,16.58
2023-04-18T09:26:54.088Z,19.63
2023-04-18T09:29:24.242Z,22.93
2023-04-18T09:32:02.223Z,17.50
2023-04-18T09:34:29.497Z,16.50
2023-04-18T09:37:11.663Z,20.33
2023-04-18T09:39:39.673Z,14.88
2023-04-18T09:42:06.536Z,17.00
2023-04-18T09:44:34.863Z,22.27
2023-04-18T09:47:01.941Z,15.77
2023-04-18T09:49:28.860Z,23.40
2023-04-18T09:51:56.867Z,16.92
2023-04-18T09:54:25.187Z,15.30
2023-04-18T09:56:54.283Z,16.23
2023-04-18T09:59:55.183Z,19.08
2023-04-18T10:02:23.066Z,17.02
2023-04-18T10:04:52.233Z,13.25
2023-04-18T10:07:20.060Z,13.80
2023-04-18T10:09:47.556Z,16.90
2023-04-18T10:12:16.026Z,15.73
2023-04-18T10:14:43.655Z,15.02
2023-04-18T10:17:11.920Z,15.43
2023-04-18T10:19:42.266Z,16.03
2023-04-18T10:22:09.314Z,17.30
2023-04-18T10:24:45.604Z,39.13
2023-04-18T10:27:12.424Z,13.48
2023-04-18T10:29:53.553Z,13.45
2023-04-18T10:32:23.039Z,16.30
2023-04-18T10:34:50.553Z,16.13
2023-04-18T10:37:19.121Z,14.00
2023-04-18T10:39:57.748Z,17.52
2023-04-18T10:42:52.162Z,12.25
2023-04-18T10:45:22.335Z,22.67
2023-04-18T10:47:49.438Z,14.48
2023-04-18T10:50:16.884Z,14.40
2023-04-18T10:52:45.116Z,12.30
2023-04-18T10:55:24.552Z,22.02
2023-04-18T10:57:51.823Z,15.33
2023-04-18T11:00:20.797Z,12.10
2023-04-18T11:02:52.826Z,35.42
2023-04-18T11:05:22.478Z,14.80
2023-04-18T11:07:49.553Z,14.02
2023-04-18T11:10:36.195Z,13.93
2023-04-18T11:13:06.989Z,11.27
2023-04-18T11:15:36.908Z,26.70
2023-04-18T11:18:04.998Z,16.58
2023-04-18T11:20:41.182Z,11.13
2023-04-18T11:23:22.923Z,37.70
2023-04-18T11:25:53.765Z,12.00
2023-04-18T11:28:22.024Z,12.30
2023-04-18T11:30:49.705Z,14.43
2023-04-18T11:33:16.946Z,10.35
2023-04-18T11:35:45.939Z,19.10
2023-04-18T11:38:15.269Z,10.80
2023-04-18T11:40:49.298Z,13.93
2023-04-18T11:43:24.896Z,10.88
2023-04-18T11:45:59.472Z,13.45
2023-04-18T11:48:36.828Z,11.30
2023-04-18T11:51:03.929Z,11.88
2023-04-18T11:53:35.651Z,12.07
2023-04-18T11:56:03.944Z,8.82
2023-04-18T11:58:34.736Z,10.60
2023-04-18T12:01:19.486Z,8.57
2023-04-18T12:04:06.789Z,9.93
2023-04-18T12:06:50.515Z,7.18
2023-04-18T12:09:17.985Z,8.07
2023-04-18T12:11:56.214Z,6.65
2023-04-18T12:14:23.379Z,31.53
2023-04-18T12:16:50.430Z,27.95
2023-04-18T12:19:17.770Z,10.88
2023-04-18T12:22:01.900Z,8.23
2023-04-18T12:24:30.129Z,10.18
2023-04-18T12:26:58.283Z,10.00
2023-04-18T12:29:29.636Z,9.55
2023-04-18T12:31:56.838Z,9.60
2023-04-18T12:34:23.857Z,8.90
2023-04-18T12:36:50.656Z,11.27
2023-04-18T12:39:17.431Z,19.53
2023-04-18T12:41:44.229Z,10.23
2023-04-18T12:44:10.853Z,11.32
2023-04-18T12:46:37.688Z,11.02
2023-04-18T12:49:04.511Z,11.80
2023-04-18T12:51:31.503Z,12.40
2023-04-18T12:53:58.348Z,13.38
2023-04-18T12:56:25.089Z,17.08
2023-04-18T12:58:51.734Z,13.50
2023-04-18T13:01:18.707Z,19.83
2023-04-18T13:03:53.372Z,14.13
2023-04-18T13:06:27.160Z,13.30
2023-04-18T13:08:53.869Z,13.73
2023-04-18T13:11:22.490Z,19.90
2023-04-18T13:13:49.477Z,16.38
2023-04-18T13:16:16.454Z,11.53
2023-04-18T13:18:43.568Z,15.02
2023-04-18T13:21:10.560Z,13.68
2023-04-18T13:23:37.405Z,25.08
2023-04-18T13:26:04.372Z,13.35
2023-04-18T13:28:31.064Z,14.40
2023-04-18T13:30:58.659Z,17.52
2023-04-18T13:33:25.373Z,19.02
2023-04-18T13:35:52.379Z,14.75
2023-04-18T13:38:19.160Z,28.98
2023-04-18T13:40:46.089Z,14.40
2023-04-18T13:43:13.248Z,17.55
2023-04-18T13:45:40.127Z,16.83
2023-04-18T13:48:07.068Z,15.43
2023-04-18T13:50:33.717Z,12.48
2023-04-18T13:53:00.617Z,16.70
2023-04-18T13:55:28.772Z,17.50
2023-04-18T13:57:55.688Z,17.13
2023-04-18T14:00:22.559Z,14.43
2023-04-18T14:02:49.744Z,16.75
2023-04-18T14:05:17.080Z,16.97
2023-04-18T14:07:43.997Z,17.55
2023-04-18T14:10:11.226Z,16.13
2023-04-18T14:12:38.186Z,16.15
2023-04-18T14:15:05.861Z,14.48
2023-04-18T14:17:32.586Z,14.87
2023-04-18T14:19:59.693Z,15.43
2023-04-18T14:22:27.105Z,16.65
2023-04-18T14:24:56.249Z,15.27
2023-04-18T14:27:25.517Z,17.38
2023-04-18T14:29:52.192Z,14.73
2023-04-18T14:32:18.882Z,18.13
2023-04-18T14:34:45.736Z,14.95
2023-04-18T14:37:12.497Z,16.70
2023-04-18T14:39:39.227Z,17.70
2023-04-18T14:42:06.091Z,21.30
2023-04-18T14:44:33.478Z,18.60
2023-04-18T14:47:00.422Z,20.98
2023-04-18T14:49:27.636Z,26.00
2023-04-18T14:51:54.529Z,18.13
2023-04-18T14:54:21.134Z,17.00
2023-04-18T14:56:48.562Z,20.05
2023-04-18T14:59:16.864Z,30.05
2023-04-18T15:01:43.890Z,24.15
2023-04-18T15:04:10.880Z,31.60
2023-04-18T15:06:38.029Z,21.20
2023-04-18T15:09:05.339Z,19.65
2023-04-18T15:11:32.259Z,20.27
2023-04-18T15:13:59.024Z,19.17
2023-04-18T15:16:26.004Z,18.00
2023-04-18T15:18:53.160Z,26.67
2023-04-18T15:21:20.077Z,20.65
2023-04-18T15:23:47.009Z,17.42
2023-04-18T15:26:13.851Z,19.95
2023-04-18T15:28:40.493Z,47.50
2023-04-18T15:31:07.755Z,22.20
2023-04-18T15:33:34.717Z,19.52
2023-04-18T15:36:01.459Z,31.25
2023-04-18T15:38:28.289Z,19.98
2023-04-18T15:40:55.131Z,22.38
2023-04-18T15:43:22.417Z,24.53
2023-04-18T15:45:49.442Z,21.88
2023-04-18T15:48:16.508Z,23.58
2023-04-18T15:50:43.377Z,22.17
2023-04-18T15:53:10.185Z,23.55
2023-04-18T15:55:37.318Z,21.80
2023-04-18T15:58:03.934Z,24.88
2023-04-18T16:00:30.788Z,19.25
2023-04-18T16:02:57.584Z,21.48
2023-04-18T16:05:24.559Z,22.95
2023-04-18T16:07:53.934Z,22.50
2023-04-18T16:10:20.859Z,19.25
2023-04-18T16:12:48.182Z,19.20
2023-04-18T16:15:14.911Z,19.20
2023-04-18T16:17:41.800Z,19.58
2023-04-18T16:20:09.264Z,20.87
2023-04-18T16:22:36.897Z,17.88
2023-04-18T16:25:04.622Z,18.60
2023-04-18T16:27:31.577Z,22.45
2023-04-18T16:29:58.415Z,19.00
2023-04-18T16:32:25.287Z,19.10
2023-04-18T16:34:52.348Z,23.25
2023-04-18T16:37:19.352Z,23.73
2023-04-18T16:39:46.380Z,22.13
2023-04-18T16:42:15.459Z,21.17
2023-04-18T16:44:42.867Z,23.33
2023-04-18T16:47:09.855Z,24.35
2023-04-18T16:49:37.476Z,20.95
2023-04-18T16:52:04.475Z,25.35
2023-04-18T16:54:31.147Z,28.63
2023-04-18T16:56:57.972Z,22.13
2023-04-18T16:59:24.733Z,28.52
2023-04-18T17:01:51.681Z,23.35
2023-04-18T17:04:18.837Z,21.13
2023-04-18T17:06:46.923Z,23.38
2023-04-18T17:09:15.027Z,23.07
2023-04-18T17:11:41.954Z,20.25
2023-04-18T17:14:09.099Z,23.60
2023-04-18T17:16:41.105Z,18.90
2023-04-18T17:19:09.094Z,22.13
2023-04-18T17:21:36.681Z,23.90
2023-04-18T17:24:06.029Z,22.40
2023-04-18T17:26:34.228Z,26.17
2023-04-18T17:29:04.765Z,19.60
2023-04-18T17:31:32.609Z,23.55
2023-04-18T17:34:00.138Z,19.60
2023-04-18T17:36:27.403Z,24.20
2023-04-18T17:38:54.016Z,21.90
2023-04-18T17:41:21.825Z,23.45
2023-04-18T17:43:51.171Z,23.50
2023-04-18T17:46:18.566Z,22.17
2023-04-18T17:48:45.455Z,22.08
2023-04-18T17:51:12.184Z,26.08
2023-04-18T17:53:39.032Z,26.52
2023-04-18T17:56:06.469Z,23.63
2023-04-18T17:58:33.526Z,26.03
2023-04-18T18:01:00.263Z,21.80
2023-04-18T18:03:27.211Z,21.40
2023-04-18T18:05:55.187Z,23.40
2023-04-18T18:08:22.536Z,21.92
2023-04-18T18:10:50.067Z,22.17
2023-04-18T18:13:17.128Z,21.98
2023-04-18T18:15:44.025Z,22.80
2023-04-18T18:18:10.941Z,23.48
2023-04-18T18:20:37.943Z,25.05
2023-04-18T18:23:04.899Z,23.80
2023-04-18T18:25:31.952Z,21.50
2023-04-18T18:27:58.549Z,24.50
2023-04-18T18:30:25.251Z,20.92
2023-04-18T18:32:53.616Z,22.20
2023-04-18T18:35:20.781Z,21.30
2023-04-18T18:37:47.901Z,23.25
2023-04-18T18:40:15.036Z,24.38
2023-04-18T18:42:43.085Z,23.75
2023-04-18T18:45:10.277Z,22.30
2023-04-18T18:47:39.662Z,22.80
2023-04-18T18:50:07.743Z,22.13
2023-04-18T18:52:34.671Z,20.10
2023-04-18T18:55:01.677Z,22.27
2023-04-18T18:57:28.351Z,25.38
2023-04-18T18:59:55.986Z,28.87
2023-04-18T19:02:23.412Z,21.77
2023-04-18T19:04:50.386Z,21.25
2023-04-18T19:07:17.399Z,21.00
2023-04-18T19:09:45.798Z,23.70
2023-04-18T19:12:12.721Z,23.87
2023-04-18T19:14:40.698Z,24.98
2023-04-18T19:17:09.205Z,23.08
2023-04-18T19:19:36.303Z,26.27
2023-04-18T19:22:03.070Z,21.63
2023-04-18T19:24:31.989Z,24.70
2023-04-18T19:26:59.714Z,22.35
2023-04-18T19:29:28.544Z,23.23
2023-04-18T19:31:56.589Z,21.65
2023-04-18T19:34:23.653Z,24.83
2023-04-18T19:36:50.775Z,26.10
2023-04-18T19:39:18.369Z,27.52
2023-04-18T19:41:46.420Z,24.13
2023-04-18T19:44:13.335Z,23.95
2023-04-18T19:46:40.067Z,19.67
2023-04-18T19:49:07.016Z,19.93
2023-04-18T19:51:33.716Z,23.70
2023-04-18T19:54:00.831Z,21.45
2023-04-18T19:56:27.856Z,21.38
2023-04-18T19:58:54.627Z,26.33
2023-04-18T20:01:21.613Z,24.53
2023-04-18T20:03:48.829Z,23.38
2023-04-18T20:06:17.077Z,25.23
2023-04-18T20:08:45.176Z,20.40
2023-04-18T20:11:14.193Z,19.45
2023-04-18T20:13:41.410Z,20.23
2023-04-18T20:16:09.036Z,23.35
2023-04-18T20:18:37.871Z,22.45
2023-04-18T20:21:07.271Z,19.42
2023-04-18T20:23:35.324Z,21.70
2023-04-18T20:26:03.068Z,23.33
2023-04-18T20:28:31.279Z,20.15
2023-04-18T20:30:58.097Z,27.08
2023-04-18T20:33:25.232Z,22.95
2023-04-18T20:35:53.778Z,21.20
2023-04-18T20:38:25.827Z,21.33
2023-04-18T20:40:53.298Z,23.95
2023-04-18T20:43:20.846Z,20.02
2023-04-18T20:45:51.708Z,21.17
2023-04-18T20:48:18.814Z,20.40
2023-04-18T20:50:51.300Z,19.73
2023-04-18T20:53:22.478Z,25.55
2023-04-18T20:55:49.594Z,22.67
2023-04-18T20:58:16.938Z,20.73
2023-04-18T21:00:46.701Z,18.35
2023-04-18T21:03:14.249Z,18.90
2023-04-18T21:05:41.582Z,21.50
2023-04-18T21:08:08.368Z,20.13
2023-04-18T21:10:35.138Z,19.83
2023-04-18T21:13:01.783Z,20.33
2023-04-18T21:15:28.524Z,22.57
2023-04-18T21:17:56.200Z,20.60
2023-04-18T21:20:22.932Z,18.48
2023-04-18T21:22:49.836Z,20.75
2023-04-18T21:25:16.884Z,18.92
2023-04-18T21:27:43.575Z,20.87
2023-04-18T21:30:10.568Z,18.38
2023-04-18T21:32:37.422Z,25.50
2023-04-18T21:35:04.487Z,16.88
2023-04-18T21:37:31.422Z,20.35
2023-04-18T21:39:58.394Z,21.13
2023-04-18T21:42:25.522Z,16.55
2023-04-18T21:44:52.127Z,17.95
2023-04-18T21:47:18.907Z,20.42
2023-04-18T21:49:45.539Z,19.40
2023-04-18T21:52:12.260Z,21.57
2023-04-18T21:54:40.130Z,17.58
2023-04-18T21:57:06.843Z,18.02
2023-04-18T21:59:33.660Z,18.35
2023-04-18T22:02:00.408Z,17.42
2023-04-18T22:04:27.934Z,21.17
2023-04-18T22:06:54.973Z,19.85
2023-04-18T22:09:22.498Z,19.83
2023-04-18T22:11:51.327Z,17.92
2023-04-18T22:14:20.394Z,20.60
2023-04-18T22:16:47.748Z,22.53
2023-04-18T22:19:14.477Z,20.05
2023-04-18T22:21:41.286Z,26.52
2023-04-18T22:24:08.907Z,18.70
2023-04-18T22:26:35.717Z,20.95
2023-04-18T22:29:02.539Z,20.40
2023-04-18T22:31:29.507Z,23.40
2023-04-18T22:33:56.499Z,22.15
2023-04-18T22:36:23.217Z,21.25
2023-04-18T22:38:49.977Z,22.55
2023-04-18T22:41:16.830Z,22.03
2023-04-18T22:43:43.880Z,23.90
2023-04-18T22:46:10.880Z,21.63
2023-04-18T22:48:38.531Z,21.30
2023-04-18T22:51:05.339Z,22.33
2023-04-18T22:53:32.233Z,22.40
2023-04-18T22:55:58.864Z,24.25
2023-04-18T22:58:25.426Z,23.45
2023-04-18T23:00:52.244Z,21.70
2023-04-18T23:03:19.095Z,23.17
2023-04-18T23:05:45.797Z,21.37
2023-04-18T23:08:12.657Z,21.55
2023-04-18T23:10:39.289Z,20.55
2023-04-18T23:13:06.145Z,19.17
2023-04-18T23:15:33.016Z,20.02
2023-04-18T23:17:59.907Z,18.42
2023-04-18T23:20:26.616Z,21.27
2023-04-18T23:22:53.776Z,23.60
2023-04-18T23:25:20.478Z,21.92
2023-04-18T23:27:48.125Z,17.35
2023-04-18T23:30:15.008Z,24.43
2023-04-18T23:32:41.934Z,19.70
2023-04-18T23:35:09.272Z,18.65
2023-04-18T23:37:36.036Z,20.52
2023-04-18T23:40:06.814Z,18.80
2023-04-18T23:42:37.117Z,19.13
2023-04-18T23:45:04.554Z,21.73
2023-04-18T23:47:31.362Z,19.85
2023-04-18T23:49:58.090Z,20.15
2023-04-18T23:52:24.739Z,21.10
2023-04-18T23:54:51.929Z,19.85
2023-04-18T23:57:18.659Z,21.48
2023-04-18T23:59:45.362Z,21.60
